sensor_id;sensor_type;location;lat;lon;timestamp;temperature;humidity
52113;DHT22;38109;49.488;31.988;2023-04-24T00:00:55;10.50;65.40
52113;DHT22;38109;49.488;31.988;2023-04-24T00:03:26;10.40;65.50
52113;DHT22;38109;49.488;31.988;2023-04-24T00:05:56;10.40;65.70
52113;DHT22;38109;49.488;31.988;2023-04-24T00:08:21;10.30;65.80
52113;DHT22;38109;49.488;31.988;2023-04-24T00:10:49;10.30;66.00
52113;DHT22;38109;49.488;31.988;2023-04-24T00:13:14;10.20;66.20
52113;DHT22;38109;49.488;31.988;2023-04-24T00:15:40;10.20;66.30
52113;DHT22;38109;49.488;31.988;2023-04-24T00:18:06;10.10;66.40
52113;DHT22;38109;49.488;31.988;2023-04-24T00:20:31;10.10;66.40
52113;DHT22;38109;49.488;31.988;2023-04-24T00:22:58;10.10;66.40
52113;DHT22;38109;49.488;31.988;2023-04-24T00:25:24;10.00;66.40
52113;DHT22;38109;49.488;31.988;2023-04-24T00:27:50;10.00;66.50
52113;DHT22;38109;49.488;31.988;2023-04-24T00:30:15;10.00;66.60
52113;DHT22;38109;49.488;31.988;2023-04-24T00:32:41;10.00;66.60
52113;DHT22;38109;49.488;31.988;2023-04-24T00:35:08;10.00;66.50
52113;DHT22;38109;49.488;31.988;2023-04-24T00:37:34;10.00;66.50
52113;DHT22;38109;49.488;31.988;2023-04-24T00:40:00;9.90;66.50
52113;DHT22;38109;49.488;31.988;2023-04-24T00:42:25;9.90;66.50
52113;DHT22;38109;49.488;31.988;2023-04-24T00:44:51;10.00;66.50
52113;DHT22;38109;49.488;31.988;2023-04-24T00:47:19;9.90;66.30
52113;DHT22;38109;49.488;31.988;2023-04-24T00:49:44;10.00;66.30
52113;DHT22;38109;49.488;31.988;2023-04-24T00:52:10;9.90;66.20
52113;DHT22;38109;49.488;31.988;2023-04-24T00:54:36;9.90;66.20
52113;DHT22;38109;49.488;31.988;2023-04-24T00:57:03;9.90;66.30
52113;DHT22;38109;49.488;31.988;2023-04-24T00:59:29;9.90;66.40
52113;DHT22;38109;49.488;31.988;2023-04-24T01:01:55;9.90;66.50
52113;DHT22;38109;49.488;31.988;2023-04-24T01:04:21;9.80;66.60
52113;DHT22;38109;49.488;31.988;2023-04-24T01:06:48;9.80;66.70
52113;DHT22;38109;49.488;31.988;2023-04-24T01:09:15;9.80;66.80
52113;DHT22;38109;49.488;31.988;2023-04-24T01:11:41;9.70;66.90
52113;DHT22;38109;49.488;31.988;2023-04-24T01:14:08;9.70;67.00
52113;DHT22;38109;49.488;31.988;2023-04-24T01:16:34;9.70;67.00
52113;DHT22;38109;49.488;31.988;2023-04-24T01:18:59;9.70;67.10
52113;DHT22;38109;49.488;31.988;2023-04-24T01:21:26;9.70;67.20
52113;DHT22;38109;49.488;31.988;2023-04-24T01:23:55;9.60;67.30
52113;DHT22;38109;49.488;31.988;2023-04-24T01:26:22;9.60;67.40
52113;DHT22;38109;49.488;31.988;2023-04-24T01:28:48;9.60;67.50
52113;DHT22;38109;49.488;31.988;2023-04-24T01:31:15;9.60;67.60
52113;DHT22;38109;49.488;31.988;2023-04-24T01:33:42;9.50;67.60
52113;DHT22;38109;49.488;31.988;2023-04-24T01:36:10;9.50;67.80
52113;DHT22;38109;49.488;31.988;2023-04-24T01:38:36;9.40;68.00
52113;DHT22;38109;49.488;31.988;2023-04-24T01:41:02;9.30;68.20
52113;DHT22;38109;49.488;31.988;2023-04-24T01:43:28;9.30;68.40
52113;DHT22;38109;49.488;31.988;2023-04-24T01:45:54;9.30;68.60
52113;DHT22;38109;49.488;31.988;2023-04-24T01:48:19;9.20;68.70
52113;DHT22;38109;49.488;31.988;2023-04-24T01:50:45;9.20;68.80
52113;DHT22;38109;49.488;31.988;2023-04-24T01:53:11;9.20;68.80
52113;DHT22;38109;49.488;31.988;2023-04-24T01:55:37;9.20;68.80
52113;DHT22;38109;49.488;31.988;2023-04-24T01:58:03;9.10;68.90
52113;DHT22;38109;49.488;31.988;2023-04-24T02:00:29;9.10;69.00
52113;DHT22;38109;49.488;31.988;2023-04-24T02:02:55;9.10;69.20
52113;DHT22;38109;49.488;31.988;2023-04-24T02:05:20;9.10;69.30
52113;DHT22;38109;49.488;31.988;2023-04-24T02:07:46;9.10;69.40
52113;DHT22;38109;49.488;31.988;2023-04-24T02:10:12;9.00;69.40
52113;DHT22;38109;49.488;31.988;2023-04-24T02:12:37;9.00;69.60
52113;DHT22;38109;49.488;31.988;2023-04-24T02:15:03;9.00;69.70
52113;DHT22;38109;49.488;31.988;2023-04-24T02:17:29;9.00;69.80
52113;DHT22;38109;49.488;31.988;2023-04-24T02:19:56;9.00;69.90
52113;DHT22;38109;49.488;31.988;2023-04-24T02:22:21;9.00;69.90
52113;DHT22;38109;49.488;31.988;2023-04-24T02:24:47;9.00;70.00
52113;DHT22;38109;49.488;31.988;2023-04-24T02:27:13;8.90;70.00
52113;DHT22;38109;49.488;31.988;2023-04-24T02:29:38;8.90;70.10
52113;DHT22;38109;49.488;31.988;2023-04-24T02:32:04;8.90;70.10
52113;DHT22;38109;49.488;31.988;2023-04-24T02:34:30;9.00;70.20
52113;DHT22;38109;49.488;31.988;2023-04-24T02:36:55;8.90;70.20
52113;DHT22;38109;49.488;31.988;2023-04-24T02:39:21;8.90;70.30
52113;DHT22;38109;49.488;31.988;2023-04-24T02:41:47;8.90;70.40
52113;DHT22;38109;49.488;31.988;2023-04-24T02:44:12;8.90;70.50
52113;DHT22;38109;49.488;31.988;2023-04-24T02:46:38;8.90;70.60
52113;DHT22;38109;49.488;31.988;2023-04-24T02:49:04;8.80;70.60
52113;DHT22;38109;49.488;31.988;2023-04-24T02:51:29;8.80;70.70
52113;DHT22;38109;49.488;31.988;2023-04-24T02:53:56;8.80;70.70
52113;DHT22;38109;49.488;31.988;2023-04-24T02:56:21;8.80;70.70
52113;DHT22;38109;49.488;31.988;2023-04-24T02:58:47;8.80;70.80
52113;DHT22;38109;49.488;31.988;2023-04-24T03:01:13;8.80;70.90
52113;DHT22;38109;49.488;31.988;2023-04-24T03:03:39;8.80;70.90
52113;DHT22;38109;49.488;31.988;2023-04-24T03:06:05;8.80;70.90
52113;DHT22;38109;49.488;31.988;2023-04-24T03:08:31;8.70;71.10
52113;DHT22;38109;49.488;31.988;2023-04-24T03:10:57;8.70;71.10
52113;DHT22;38109;49.488;31.988;2023-04-24T03:13:23;8.70;71.20
52113;DHT22;38109;49.488;31.988;2023-04-24T03:15:49;8.70;71.20
52113;DHT22;38109;49.488;31.988;2023-04-24T03:18:14;8.70;71.30
52113;DHT22;38109;49.488;31.988;2023-04-24T03:20:40;8.70;71.40
52113;DHT22;38109;49.488;31.988;2023-04-24T03:23:06;8.70;71.40
52113;DHT22;38109;49.488;31.988;2023-04-24T03:25:31;8.70;71.50
52113;DHT22;38109;49.488;31.988;2023-04-24T03:27:57;8.70;71.70
52113;DHT22;38109;49.488;31.988;2023-04-24T03:30:23;8.70;71.80
52113;DHT22;38109;49.488;31.988;2023-04-24T03:32:48;8.70;71.90
52113;DHT22;38109;49.488;31.988;2023-04-24T03:35:14;8.70;71.90
52113;DHT22;38109;49.488;31.988;2023-04-24T03:37:40;8.70;71.90
52113;DHT22;38109;49.488;31.988;2023-04-24T03:40:08;8.70;72.00
52113;DHT22;38109;49.488;31.988;2023-04-24T03:42:37;8.70;72.00
52113;DHT22;38109;49.488;31.988;2023-04-24T03:45:03;8.70;72.20
52113;DHT22;38109;49.488;31.988;2023-04-24T03:47:29;8.70;72.20
52113;DHT22;38109;49.488;31.988;2023-04-24T03:49:55;8.70;72.30
52113;DHT22;38109;49.488;31.988;2023-04-24T03:52:26;8.70;72.40
52113;DHT22;38109;49.488;31.988;2023-04-24T03:58:07;8.90;72.60
52113;DHT22;38109;49.488;31.988;2023-04-24T04:00:33;8.90;72.40
52113;DHT22;38109;49.488;31.988;2023-04-24T04:02:59;9.00;72.40
52113;DHT22;38109;49.488;31.988;2023-04-24T04:05:25;9.10;72.40
52113;DHT22;38109;49.488;31.988;2023-04-24T04:07:51;9.20;72.40
52113;DHT22;38109;49.488;31.988;2023-04-24T04:10:17;9.30;72.40
52113;DHT22;38109;49.488;31.988;2023-04-24T04:12:42;9.30;72.30
52113;DHT22;38109;49.488;31.988;2023-04-24T04:15:08;9.40;72.40
52113;DHT22;38109;49.488;31.988;2023-04-24T04:17:34;9.50;72.80
52113;DHT22;38109;49.488;31.988;2023-04-24T04:20:00;9.60;72.20
52113;DHT22;38109;49.488;31.988;2023-04-24T04:22:26;9.70;72.00
52113;DHT22;38109;49.488;31.988;2023-04-24T04:24:52;9.80;71.90
52113;DHT22;38109;49.488;31.988;2023-04-24T04:27:18;9.90;71.70
52113;DHT22;38109;49.488;31.988;2023-04-24T04:29:44;10.00;71.60
52113;DHT22;38109;49.488;31.988;2023-04-24T04:32:10;10.10;71.50
52113;DHT22;38109;49.488;31.988;2023-04-24T04:34:36;10.20;71.40
52113;DHT22;38109;49.488;31.988;2023-04-24T04:37:03;10.20;71.30
52113;DHT22;38109;49.488;31.988;2023-04-24T04:39:29;10.30;71.50
52113;DHT22;38109;49.488;31.988;2023-04-24T04:41:55;10.30;71.60
52113;DHT22;38109;49.488;31.988;2023-04-24T04:47:44;10.50;71.70
52113;DHT22;38109;49.488;31.988;2023-04-24T04:50:10;10.50;71.70
52113;DHT22;38109;49.488;31.988;2023-04-24T04:52:36;10.50;71.80
52113;DHT22;38109;49.488;31.988;2023-04-24T04:55:02;10.60;71.90
52113;DHT22;38109;49.488;31.988;2023-04-24T04:57:28;10.60;71.90
52113;DHT22;38109;49.488;31.988;2023-04-24T04:59:54;10.70;72.00
52113;DHT22;38109;49.488;31.988;2023-04-24T05:02:20;10.70;72.00
52113;DHT22;38109;49.488;31.988;2023-04-24T05:04:46;10.80;72.10
52113;DHT22;38109;49.488;31.988;2023-04-24T05:07:27;10.80;72.20
52113;DHT22;38109;49.488;31.988;2023-04-24T05:13:15;10.90;72.40
52113;DHT22;38109;49.488;31.988;2023-04-24T05:15:40;11.00;72.20
52113;DHT22;38109;49.488;31.988;2023-04-24T05:18:06;11.10;72.30
52113;DHT22;38109;49.488;31.988;2023-04-24T05:20:31;11.20;72.30
52113;DHT22;38109;49.488;31.988;2023-04-24T05:22:58;11.30;72.10
52113;DHT22;38109;49.488;31.988;2023-04-24T05:25:23;11.30;71.90
52113;DHT22;38109;49.488;31.988;2023-04-24T05:27:49;11.40;71.70
52113;DHT22;38109;49.488;31.988;2023-04-24T05:40:43;11.90;70.90
52113;DHT22;38109;49.488;31.988;2023-04-24T05:46:31;12.10;70.90
52113;DHT22;38109;49.488;31.988;2023-04-24T05:48:56;12.20;70.80
52113;DHT22;38109;49.488;31.988;2023-04-24T05:51:23;12.30;70.90
52113;DHT22;38109;49.488;31.988;2023-04-24T05:53:48;12.30;70.70
52113;DHT22;38109;49.488;31.988;2023-04-24T05:56:15;12.40;70.60
52113;DHT22;38109;49.488;31.988;2023-04-24T05:58:41;12.50;70.50
52113;DHT22;38109;49.488;31.988;2023-04-24T06:01:06;12.60;70.40
52113;DHT22;38109;49.488;31.988;2023-04-24T06:03:32;12.70;70.40
52113;DHT22;38109;49.488;31.988;2023-04-24T06:05:58;12.80;70.30
52113;DHT22;38109;49.488;31.988;2023-04-24T06:08:24;12.90;70.10
52113;DHT22;38109;49.488;31.988;2023-04-24T06:10:49;13.00;70.00
52113;DHT22;38109;49.488;31.988;2023-04-24T06:13:15;13.10;70.00
52113;DHT22;38109;49.488;31.988;2023-04-24T06:15:41;13.20;70.00
52113;DHT22;38109;49.488;31.988;2023-04-24T06:18:07;13.30;70.00
52113;DHT22;38109;49.488;31.988;2023-04-24T06:20:33;13.40;69.90
52113;DHT22;38109;49.488;31.988;2023-04-24T06:22:58;13.40;69.80
52113;DHT22;38109;49.488;31.988;2023-04-24T06:25:27;13.50;69.70
52113;DHT22;38109;49.488;31.988;2023-04-24T06:27:54;13.60;69.60
52113;DHT22;38109;49.488;31.988;2023-04-24T06:30:20;13.70;69.60
52113;DHT22;38109;49.488;31.988;2023-04-24T06:36:09;13.80;69.40
52113;DHT22;38109;49.488;31.988;2023-04-24T06:38:34;13.90;69.30
52113;DHT22;38109;49.488;31.988;2023-04-24T06:41:00;14.00;69.30
52113;DHT22;38109;49.488;31.988;2023-04-24T06:43:26;14.10;69.30
52113;DHT22;38109;49.488;31.988;2023-04-24T06:45:51;14.20;69.30
52113;DHT22;38109;49.488;31.988;2023-04-24T06:48:17;14.30;69.20
52113;DHT22;38109;49.488;31.988;2023-04-24T06:50:43;14.40;69.10
52113;DHT22;38109;49.488;31.988;2023-04-24T06:53:08;14.40;68.90
52113;DHT22;38109;49.488;31.988;2023-04-24T06:55:36;14.50;68.70
52113;DHT22;38109;49.488;31.988;2023-04-24T06:58:02;14.60;68.50
52113;DHT22;38109;49.488;31.988;2023-04-24T07:00:28;14.70;68.30
52113;DHT22;38109;49.488;31.988;2023-04-24T07:02:54;14.80;68.10
52113;DHT22;38109;49.488;31.988;2023-04-24T07:05:20;14.80;67.90
52113;DHT22;38109;49.488;31.988;2023-04-24T07:07:47;14.90;67.80
52113;DHT22;38109;49.488;31.988;2023-04-24T07:10:12;15.00;67.70
52113;DHT22;38109;49.488;31.988;2023-04-24T07:12:39;15.10;67.50
52113;DHT22;38109;49.488;31.988;2023-04-24T07:15:17;15.10;67.40
52113;DHT22;38109;49.488;31.988;2023-04-24T07:17:43;15.20;67.20
52113;DHT22;38109;49.488;31.988;2023-04-24T07:20:10;15.30;67.10
52113;DHT22;38109;49.488;31.988;2023-04-24T07:22:40;15.40;66.90
52113;DHT22;38109;49.488;31.988;2023-04-24T07:25:07;15.40;66.70
52113;DHT22;38109;49.488;31.988;2023-04-24T07:27:34;15.50;66.60
52113;DHT22;38109;49.488;31.988;2023-04-24T07:30:02;15.50;66.50
52113;DHT22;38109;49.488;31.988;2023-04-24T07:35:49;15.60;66.10
52113;DHT22;38109;49.488;31.988;2023-04-24T07:38:15;15.70;66.00
52113;DHT22;38109;49.488;31.988;2023-04-24T07:40:41;15.70;66.00
52113;DHT22;38109;49.488;31.988;2023-04-24T07:43:07;15.70;66.00
52113;DHT22;38109;49.488;31.988;2023-04-24T07:45:33;15.70;66.00
52113;DHT22;38109;49.488;31.988;2023-04-24T07:48:02;15.70;65.90
52113;DHT22;38109;49.488;31.988;2023-04-24T07:50:28;15.80;65.80
52113;DHT22;38109;49.488;31.988;2023-04-24T07:52:54;15.80;65.80
52113;DHT22;38109;49.488;31.988;2023-04-24T07:55:20;15.90;65.70
52113;DHT22;38109;49.488;31.988;2023-04-24T08:01:47;15.90;65.10
52113;DHT22;38109;49.488;31.988;2023-04-24T08:07:34;16.00;64.90
52113;DHT22;38109;49.488;31.988;2023-04-24T08:10:01;16.00;64.90
52113;DHT22;38109;49.488;31.988;2023-04-24T08:12:29;16.00;64.80
52113;DHT22;38109;49.488;31.988;2023-04-24T08:14:55;16.10;64.60
52113;DHT22;38109;49.488;31.988;2023-04-24T08:17:20;16.10;64.40
52113;DHT22;38109;49.488;31.988;2023-04-24T08:19:46;16.20;64.90
52113;DHT22;38109;49.488;31.988;2023-04-24T08:22:16;16.20;64.20
52113;DHT22;38109;49.488;31.988;2023-04-24T08:24:42;16.20;64.00
52113;DHT22;38109;49.488;31.988;2023-04-24T08:27:09;16.30;63.80
52113;DHT22;38109;49.488;31.988;2023-04-24T08:29:35;16.30;63.60
52113;DHT22;38109;49.488;31.988;2023-04-24T08:32:00;16.40;63.30
52113;DHT22;38109;49.488;31.988;2023-04-24T08:34:26;16.40;63.20
52113;DHT22;38109;49.488;31.988;2023-04-24T08:36:52;16.40;63.00
52113;DHT22;38109;49.488;31.988;2023-04-24T08:39:18;16.40;62.50
52113;DHT22;38109;49.488;31.988;2023-04-24T08:41:44;16.50;62.50
52113;DHT22;38109;49.488;31.988;2023-04-24T08:44:11;16.50;62.40
52113;DHT22;38109;49.488;31.988;2023-04-24T08:46:38;16.60;62.10
52113;DHT22;38109;49.488;31.988;2023-04-24T08:49:05;16.60;62.00
52113;DHT22;38109;49.488;31.988;2023-04-24T08:51:31;16.60;61.70
52113;DHT22;38109;49.488;31.988;2023-04-24T08:53:58;16.70;61.50
52113;DHT22;38109;49.488;31.988;2023-04-24T08:56:24;16.70;61.50
52113;DHT22;38109;49.488;31.988;2023-04-24T08:58:54;16.80;61.50
52113;DHT22;38109;49.488;31.988;2023-04-24T09:01:20;16.80;61.40
52113;DHT22;38109;49.488;31.988;2023-04-24T09:03:49;16.80;61.30
52113;DHT22;38109;49.488;31.988;2023-04-24T09:06:16;16.90;61.30
52113;DHT22;38109;49.488;31.988;2023-04-24T09:08:44;16.90;60.90
52113;DHT22;38109;49.488;31.988;2023-04-24T09:11:11;16.90;60.70
52113;DHT22;38109;49.488;31.988;2023-04-24T09:13:37;17.00;60.80
52113;DHT22;38109;49.488;31.988;2023-04-24T09:16:03;17.00;60.60
52113;DHT22;38109;49.488;31.988;2023-04-24T09:18:29;17.00;60.30
52113;DHT22;38109;49.488;31.988;2023-04-24T09:21:00;17.00;60.30
52113;DHT22;38109;49.488;31.988;2023-04-24T09:23:37;17.10;60.20
52113;DHT22;38109;49.488;31.988;2023-04-24T09:26:04;17.10;60.00
52113;DHT22;38109;49.488;31.988;2023-04-24T09:28:35;17.10;59.80
52113;DHT22;38109;49.488;31.988;2023-04-24T09:31:09;17.10;59.70
52113;DHT22;38109;49.488;31.988;2023-04-24T09:33:35;17.10;59.50
52113;DHT22;38109;49.488;31.988;2023-04-24T09:36:02;17.10;59.50
52113;DHT22;38109;49.488;31.988;2023-04-24T09:38:38;17.10;59.30
52113;DHT22;38109;49.488;31.988;2023-04-24T09:41:07;17.10;59.40
52113;DHT22;38109;49.488;31.988;2023-04-24T09:43:34;17.10;59.30
52113;DHT22;38109;49.488;31.988;2023-04-24T09:46:05;17.10;59.30
52113;DHT22;38109;49.488;31.988;2023-04-24T09:48:35;17.10;59.40
52113;DHT22;38109;49.488;31.988;2023-04-24T09:51:03;17.10;59.30
52113;DHT22;38109;49.488;31.988;2023-04-24T09:53:30;17.10;59.40
52113;DHT22;38109;49.488;31.988;2023-04-24T09:56:02;17.10;59.40
52113;DHT22;38109;49.488;31.988;2023-04-24T09:58:29;17.10;59.30
52113;DHT22;38109;49.488;31.988;2023-04-24T10:00:56;17.00;59.30
52113;DHT22;38109;49.488;31.988;2023-04-24T10:03:25;17.00;59.40
52113;DHT22;38109;49.488;31.988;2023-04-24T10:05:52;17.00;59.50
52113;DHT22;38109;49.488;31.988;2023-04-24T10:08:19;17.00;59.50
52113;DHT22;38109;49.488;31.988;2023-04-24T10:10:46;17.10;59.50
52113;DHT22;38109;49.488;31.988;2023-04-24T10:13:13;17.00;59.50
52113;DHT22;38109;49.488;31.988;2023-04-24T10:15:41;17.00;59.50
52113;DHT22;38109;49.488;31.988;2023-04-24T10:18:08;17.00;59.30
52113;DHT22;38109;49.488;31.988;2023-04-24T10:20:36;17.10;59.90
52113;DHT22;38109;49.488;31.988;2023-04-24T10:23:03;17.10;59.20
52113;DHT22;38109;49.488;31.988;2023-04-24T10:25:31;17.10;59.00
52113;DHT22;38109;49.488;31.988;2023-04-24T10:27:58;17.00;59.00
52113;DHT22;38109;49.488;31.988;2023-04-24T10:30:26;17.10;59.10
52113;DHT22;38109;49.488;31.988;2023-04-24T10:32:52;17.10;59.20
52113;DHT22;38109;49.488;31.988;2023-04-24T10:35:18;17.10;59.10
52113;DHT22;38109;49.488;31.988;2023-04-24T10:37:56;17.10;59.80
52113;DHT22;38109;49.488;31.988;2023-04-24T10:44:16;17.10;59.10
52113;DHT22;38109;49.488;31.988;2023-04-24T10:50:09;17.20;59.10
52113;DHT22;38109;49.488;31.988;2023-04-24T10:56:07;17.20;59.10
52113;DHT22;38109;49.488;31.988;2023-04-24T11:02:09;17.30;59.00
52113;DHT22;38109;49.488;31.988;2023-04-24T11:08:16;17.30;59.00
52113;DHT22;38109;49.488;31.988;2023-04-24T11:14:09;17.30;58.90
52113;DHT22;38109;49.488;31.988;2023-04-24T11:23:25;17.30;59.40
52113;DHT22;38109;49.488;31.988;2023-04-24T11:29:15;17.30;59.30
52113;DHT22;38109;49.488;31.988;2023-04-24T11:35:23;17.30;58.90
52113;DHT22;38109;49.488;31.988;2023-04-24T11:38:27;17.40;58.70
52113;DHT22;38109;49.488;31.988;2023-04-24T11:44:15;17.60;57.80
52113;DHT22;38109;49.488;31.988;2023-04-24T11:50:08;17.60;56.40
52113;DHT22;38109;49.488;31.988;2023-04-24T11:52:38;17.60;56.40
52113;DHT22;38109;49.488;31.988;2023-04-24T11:58:26;17.70;56.40
52113;DHT22;38109;49.488;31.988;2023-04-24T12:04:16;17.80;56.70
52113;DHT22;38109;49.488;31.988;2023-04-24T12:10:05;17.90;56.40
52113;DHT22;38109;49.488;31.988;2023-04-24T12:15:52;17.90;55.90
52113;DHT22;38109;49.488;31.988;2023-04-24T12:21:40;18.00;55.90
52113;DHT22;38109;49.488;31.988;2023-04-24T12:24:06;18.00;55.90
52113;DHT22;38109;49.488;31.988;2023-04-24T12:29:36;18.10;55.90
52113;DHT22;38109;49.488;31.988;2023-04-24T12:32:03;18.10;55.90
52113;DHT22;38109;49.488;31.988;2023-04-24T12:34:31;18.20;55.80
52113;DHT22;38109;49.488;31.988;2023-04-24T12:37:10;18.20;55.90
52113;DHT22;38109;49.488;31.988;2023-04-24T12:39:35;18.20;55.60
52113;DHT22;38109;49.488;31.988;2023-04-24T12:42:04;18.30;55.50
52113;DHT22;38109;49.488;31.988;2023-04-24T12:44:34;18.30;55.10
52113;DHT22;38109;49.488;31.988;2023-04-24T12:47:12;18.30;54.70
52113;DHT22;38109;49.488;31.988;2023-04-24T12:49:38;18.30;54.50
52113;DHT22;38109;49.488;31.988;2023-04-24T12:52:09;18.30;54.40
52113;DHT22;38109;49.488;31.988;2023-04-24T12:54:35;18.40;54.60
52113;DHT22;38109;49.488;31.988;2023-04-24T12:57:15;18.40;54.40
52113;DHT22;38109;49.488;31.988;2023-04-24T12:59:41;18.40;54.40
52113;DHT22;38109;49.488;31.988;2023-04-24T13:02:08;18.40;54.40
52113;DHT22;38109;49.488;31.988;2023-04-24T13:04:57;18.50;54.60
52113;DHT22;38109;49.488;31.988;2023-04-24T13:07:23;18.50;54.50
52113;DHT22;38109;49.488;31.988;2023-04-24T13:09:50;18.50;54.40
52113;DHT22;38109;49.488;31.988;2023-04-24T13:15:36;18.50;53.90
52113;DHT22;38109;49.488;31.988;2023-04-24T13:18:28;18.60;53.80
52113;DHT22;38109;49.488;31.988;2023-04-24T13:20:58;18.60;53.20
52113;DHT22;38109;49.488;31.988;2023-04-24T13:26:46;18.70;53.00
52113;DHT22;38109;49.488;31.988;2023-04-24T13:29:12;18.70;52.80
52113;DHT22;38109;49.488;31.988;2023-04-24T13:31:37;18.70;52.50
52113;DHT22;38109;49.488;31.988;2023-04-24T13:34:03;18.80;52.40
52113;DHT22;38109;49.488;31.988;2023-04-24T13:36:30;18.80;52.10
52113;DHT22;38109;49.488;31.988;2023-04-24T13:38:59;18.80;52.00
52113;DHT22;38109;49.488;31.988;2023-04-24T13:41:24;18.80;51.90
52113;DHT22;38109;49.488;31.988;2023-04-24T13:43:50;18.90;51.60
52113;DHT22;38109;49.488;31.988;2023-04-24T13:46:16;18.90;51.70
52113;DHT22;38109;49.488;31.988;2023-04-24T13:48:42;18.90;51.50
52113;DHT22;38109;49.488;31.988;2023-04-24T13:51:07;19.00;51.40
52113;DHT22;38109;49.488;31.988;2023-04-24T13:53:33;19.00;51.20
52113;DHT22;38109;49.488;31.988;2023-04-24T13:56:03;19.00;51.40
52113;DHT22;38109;49.488;31.988;2023-04-24T14:01:51;19.10;51.00
52113;DHT22;38109;49.488;31.988;2023-04-24T14:04:16;19.20;51.00
52113;DHT22;38109;49.488;31.988;2023-04-24T14:06:43;19.20;50.90
52113;DHT22;38109;49.488;31.988;2023-04-24T14:09:09;19.20;50.70
52113;DHT22;38109;49.488;31.988;2023-04-24T14:11:36;19.20;50.70
52113;DHT22;38109;49.488;31.988;2023-04-24T14:14:02;19.10;50.80
52113;DHT22;38109;49.488;31.988;2023-04-24T14:19:50;19.00;50.90
52113;DHT22;38109;49.488;31.988;2023-04-24T14:22:17;18.90;51.10
52113;DHT22;38109;49.488;31.988;2023-04-24T14:24:43;18.90;51.20
52113;DHT22;38109;49.488;31.988;2023-04-24T14:27:09;18.80;51.00
52113;DHT22;38109;49.488;31.988;2023-04-24T14:29:35;18.80;51.30
52113;DHT22;38109;49.488;31.988;2023-04-24T14:32:03;18.80;51.60
52113;DHT22;38109;49.488;31.988;2023-04-24T14:34:28;18.80;51.70
52113;DHT22;38109;49.488;31.988;2023-04-24T14:36:54;18.90;51.60
52113;DHT22;38109;49.488;31.988;2023-04-24T14:39:20;19.00;51.60
52113;DHT22;38109;49.488;31.988;2023-04-24T14:41:46;19.10;50.80
52113;DHT22;38109;49.488;31.988;2023-04-24T14:44:12;19.20;49.70
52113;DHT22;38109;49.488;31.988;2023-04-24T14:46:37;19.30;49.60
52113;DHT22;38109;49.488;31.988;2023-04-24T14:49:03;19.30;48.70
52113;DHT22;38109;49.488;31.988;2023-04-24T14:51:29;19.40;48.20
52113;DHT22;38109;49.488;31.988;2023-04-24T14:53:56;19.40;48.00
52113;DHT22;38109;49.488;31.988;2023-04-24T14:56:23;19.50;48.40
52113;DHT22;38109;49.488;31.988;2023-04-24T14:58:49;19.50;47.60
52113;DHT22;38109;49.488;31.988;2023-04-24T15:01:15;19.50;47.60
52113;DHT22;38109;49.488;31.988;2023-04-24T15:03:43;19.60;47.70
52113;DHT22;38109;49.488;31.988;2023-04-24T15:06:14;19.60;47.80
52113;DHT22;38109;49.488;31.988;2023-04-24T15:08:40;19.70;48.30
52113;DHT22;38109;49.488;31.988;2023-04-24T15:11:06;19.70;48.50
52113;DHT22;38109;49.488;31.988;2023-04-24T15:13:32;19.80;48.80
52113;DHT22;38109;49.488;31.988;2023-04-24T15:15:58;19.80;49.10
52113;DHT22;38109;49.488;31.988;2023-04-24T15:18:23;19.80;49.40
52113;DHT22;38109;49.488;31.988;2023-04-24T15:20:49;19.90;49.40
52113;DHT22;38109;49.488;31.988;2023-04-24T15:23:46;19.80;49.30
52113;DHT22;38109;49.488;31.988;2023-04-24T15:26:43;19.80;49.60
52113;DHT22;38109;49.488;31.988;2023-04-24T15:29:09;19.70;49.60
52113;DHT22;38109;49.488;31.988;2023-04-24T15:31:34;19.60;49.30
52113;DHT22;38109;49.488;31.988;2023-04-24T15:34:04;19.50;49.60
52113;DHT22;38109;49.488;31.988;2023-04-24T15:36:31;19.40;49.60
52113;DHT22;38109;49.488;31.988;2023-04-24T15:38:56;19.30;49.60
52113;DHT22;38109;49.488;31.988;2023-04-24T15:41:22;19.20;49.50
52113;DHT22;38109;49.488;31.988;2023-04-24T15:43:47;19.10;49.50
52113;DHT22;38109;49.488;31.988;2023-04-24T15:46:13;19.10;49.80
52113;DHT22;38109;49.488;31.988;2023-04-24T15:48:39;19.00;50.00
52113;DHT22;38109;49.488;31.988;2023-04-24T15:51:23;18.90;50.20
52113;DHT22;38109;49.488;31.988;2023-04-24T15:57:22;18.80;50.80
52113;DHT22;38109;49.488;31.988;2023-04-24T16:39:07;17.80;52.60
52113;DHT22;38109;49.488;31.988;2023-04-24T16:51:31;17.50;53.70
52113;DHT22;38109;49.488;31.988;2023-04-24T16:53:58;17.40;53.90
52113;DHT22;38109;49.488;31.988;2023-04-24T16:56:23;17.30;54.10
52113;DHT22;38109;49.488;31.988;2023-04-24T16:58:49;17.30;54.30
52113;DHT22;38109;49.488;31.988;2023-04-24T17:01:16;17.20;54.70
52113;DHT22;38109;49.488;31.988;2023-04-24T17:03:42;17.20;54.70
52113;DHT22;38109;49.488;31.988;2023-04-24T17:06:07;17.10;54.70
52113;DHT22;38109;49.488;31.988;2023-04-24T17:08:33;17.00;54.80
52113;DHT22;38109;49.488;31.988;2023-04-24T17:10:59;17.00;55.00
52113;DHT22;38109;49.488;31.988;2023-04-24T17:13:24;17.00;55.20
52113;DHT22;38109;49.488;31.988;2023-04-24T17:15:50;16.90;55.40
52113;DHT22;38109;49.488;31.988;2023-04-24T17:18:16;16.80;55.50
52113;DHT22;38109;49.488;31.988;2023-04-24T17:20:42;16.80;55.80
52113;DHT22;38109;49.488;31.988;2023-04-24T17:23:08;16.70;55.90
52113;DHT22;38109;49.488;31.988;2023-04-24T17:25:36;16.70;56.10
52113;DHT22;38109;49.488;31.988;2023-04-24T17:28:02;16.60;56.40
52113;DHT22;38109;49.488;31.988;2023-04-24T17:30:30;16.50;56.70
52113;DHT22;38109;49.488;31.988;2023-04-24T17:32:56;16.50;57.10
52113;DHT22;38109;49.488;31.988;2023-04-24T17:35:21;16.40;57.20
52113;DHT22;38109;49.488;31.988;2023-04-24T17:37:47;16.30;57.40
52113;DHT22;38109;49.488;31.988;2023-04-24T17:40:12;16.30;57.60
52113;DHT22;38109;49.488;31.988;2023-04-24T17:42:39;16.20;57.80
52113;DHT22;38109;49.488;31.988;2023-04-24T17:45:06;16.20;58.00
52113;DHT22;38109;49.488;31.988;2023-04-24T17:47:32;16.10;58.30
52113;DHT22;38109;49.488;31.988;2023-04-24T17:49:58;16.00;58.40
52113;DHT22;38109;49.488;31.988;2023-04-24T17:52:23;16.00;58.60
52113;DHT22;38109;49.488;31.988;2023-04-24T17:54:49;15.90;58.60
52113;DHT22;38109;49.488;31.988;2023-04-24T17:57:15;15.80;58.70
52113;DHT22;38109;49.488;31.988;2023-04-24T17:59:41;15.80;58.80
52113;DHT22;38109;49.488;31.988;2023-04-24T18:02:06;15.70;58.80
52113;DHT22;38109;49.488;31.988;2023-04-24T18:04:32;15.70;59.00